createdAt,value
2022-11-23T00:02:19.561Z,49.50
2022-11-23T00:04:49.379Z,55.20
2022-11-23T00:07:19.473Z,65.00
2022-11-23T00:09:49.301Z,52.50
2022-11-23T00:12:20.040Z,44.00
2022-11-23T00:14:49.850Z,57.80
2022-11-23T00:17:19.810Z,43.60
2022-11-23T00:19:49.800Z,46.30
2022-11-23T00:22:19.660Z,40.10
2022-11-23T00:24:49.602Z,42.80
2022-11-23T00:27:19.344Z,46.80
2022-11-23T00:29:49.841Z,54.30
2022-11-23T00:32:19.680Z,54.00
2022-11-23T00:34:49.551Z,49.40
2022-11-23T00:37:19.393Z,58.50
2022-11-23T00:39:51.700Z,52.90
2022-11-23T00:42:21.758Z,46.10
2022-11-23T00:44:52.091Z,45.90
2022-11-23T00:47:22.440Z,44.70
2022-11-23T00:49:53.551Z,46.80
2022-11-23T00:52:24.910Z,47.50
2022-11-23T00:54:55.411Z,41.60
2022-11-23T00:57:25.750Z,44.70
2022-11-23T00:59:55.819Z,47.10
2022-11-23T01:02:28.080Z,49.30
2022-11-23T01:04:58.021Z,38.10
2022-11-23T01:07:30.709Z,46.80
2022-11-23T01:10:00.470Z,45.00
2022-11-23T01:12:31.520Z,45.00
2022-11-23T01:15:01.628Z,42.40
2022-11-23T01:17:31.710Z,45.60
2022-11-23T01:20:01.601Z,44.00
2022-11-23T01:22:31.388Z,42.30
2022-11-23T01:25:01.400Z,41.70
2022-11-23T01:27:49.981Z,42.40
2022-11-23T01:30:20.530Z,43.20
2022-11-23T01:32:51.020Z,42.80
2022-11-23T01:35:21.840Z,44.60
2022-11-23T01:37:51.730Z,44.30
2022-11-23T01:40:22.291Z,46.20
2022-11-23T01:42:56.800Z,44.60
2022-11-23T01:45:39.558Z,48.30
2022-11-23T01:48:16.791Z,45.10
2022-11-23T01:50:50.621Z,50.20
2022-11-23T01:53:23.072Z,46.50
2022-11-23T01:55:55.580Z,46.40
2022-11-23T01:58:28.071Z,46.60
2022-11-23T02:00:58.539Z,45.80
2022-11-23T02:03:31.121Z,48.00
2022-11-23T02:06:03.890Z,46.30
2022-11-23T02:08:34.110Z,35.00
2022-11-23T02:11:05.860Z,41.00
2022-11-23T02:13:35.942Z,44.10
2022-11-23T02:16:06.991Z,45.20
2022-11-23T02:18:38.611Z,42.00
2022-11-23T02:21:08.911Z,41.60
2022-11-23T02:23:46.992Z,37.00
2022-11-23T02:26:21.869Z,39.80
2022-11-23T02:28:56.432Z,40.00
2022-11-23T02:31:26.691Z,39.20
2022-11-23T02:33:57.388Z,41.80
2022-11-23T02:36:38.349Z,44.30
2022-11-23T02:39:11.583Z,43.60
2022-11-23T02:41:44.501Z,44.30
2022-11-23T02:44:32.588Z,48.00
2022-11-23T02:47:04.441Z,44.50
2022-11-23T02:49:35.510Z,43.90
2022-11-23T02:52:07.189Z,44.50
2022-11-23T02:54:37.406Z,42.30
2022-11-23T02:57:08.589Z,43.00
2022-11-23T02:59:38.722Z,42.70
2022-11-23T03:02:09.632Z,40.60
2022-11-23T03:04:39.541Z,39.80
2022-11-23T03:07:09.646Z,38.40
2022-11-23T03:09:39.490Z,40.80
2022-11-23T03:12:09.565Z,41.70
2022-11-23T03:14:39.629Z,38.30
2022-11-23T03:17:09.518Z,42.50
2022-11-23T03:19:45.743Z,48.40
2022-11-23T03:22:16.415Z,50.50
2022-11-23T03:24:46.579Z,44.80
2022-11-23T03:27:18.920Z,46.10
2022-11-23T03:29:49.491Z,53.50
2022-11-23T03:32:22.641Z,63.40
2022-11-23T03:34:54.858Z,60.90
2022-11-23T03:37:25.640Z,87.50
2022-11-23T03:39:56.351Z,106.10
2022-11-23T03:42:45.230Z,99.50
2022-11-23T03:45:15.642Z,127.20
2022-11-23T03:47:45.672Z,132.90
2022-11-23T03:50:16.262Z,105.60
2022-11-23T03:52:46.131Z,116.60
2022-11-23T03:55:18.519Z,102.60
2022-11-23T03:57:50.240Z,104.10
2022-11-23T04:00:21.082Z,73.70
2022-11-23T04:02:51.774Z,144.60
2022-11-23T04:05:50.981Z,121.40
2022-11-23T04:08:21.781Z,183.20
2022-11-23T04:10:52.069Z,120.70
2022-11-23T04:13:25.990Z,139.20
2022-11-23T04:15:56.201Z,100.90
2022-11-23T04:18:26.667Z,169.80
2022-11-23T04:20:57.451Z,194.00
2022-11-23T04:23:27.583Z,138.20
2022-11-23T04:25:57.681Z,99.00
2022-11-23T04:28:28.118Z,132.90
2022-11-23T04:30:58.540Z,112.70
2022-11-23T04:33:31.301Z,140.60
2022-11-23T04:36:01.633Z,80.80
2022-11-23T04:38:31.762Z,74.50
2022-11-23T04:41:02.583Z,83.10
2022-11-23T04:43:35.240Z,97.30
2022-11-23T04:46:06.460Z,95.80
2022-11-23T04:48:36.466Z,99.50
2022-11-23T04:51:07.811Z,78.10
2022-11-23T04:53:39.886Z,73.50
2022-11-23T04:56:12.363Z,77.10
2022-11-23T04:58:43.500Z,103.50
2022-11-23T05:01:14.702Z,116.80
2022-11-23T05:04:04.792Z,83.50
2022-11-23T05:06:34.904Z,86.10
2022-11-23T05:09:06.531Z,110.30
2022-11-23T05:12:06.380Z,61.10
2022-11-23T05:14:37.189Z,135.20
2022-11-23T05:17:09.552Z,73.80
2022-11-23T05:19:40.893Z,203.80
2022-11-23T05:22:11.691Z,162.40
2022-11-23T05:24:43.608Z,128.70
2022-11-23T05:27:17.831Z,92.60
2022-11-23T05:29:47.889Z,96.40
2022-11-23T05:32:18.118Z,64.10
2022-11-23T05:34:47.998Z,102.30
2022-11-23T05:37:18.590Z,76.20
2022-11-23T05:39:54.363Z,53.90
2022-11-23T05:42:29.030Z,86.60
2022-11-23T05:45:05.324Z,68.10
2022-11-23T05:47:42.329Z,44.70
2022-11-23T05:50:20.841Z,79.50
2022-11-23T05:52:50.749Z,87.70
2022-11-23T05:55:21.379Z,60.20
2022-11-23T05:57:51.351Z,63.30
2022-11-23T06:00:22.347Z,85.30
2022-11-23T06:03:01.210Z,51.40
2022-11-23T06:05:31.460Z,38.40
2022-11-23T06:08:04.268Z,47.50
2022-11-23T06:10:35.699Z,71.60
2022-11-23T06:13:06.396Z,55.50
2022-11-23T06:15:36.630Z,73.20
2022-11-23T06:18:07.169Z,25.60
2022-11-23T06:20:49.129Z,81.30
2022-11-23T06:23:19.210Z,45.30
2022-11-23T06:25:49.037Z,139.20
2022-11-23T06:28:24.360Z,121.80
2022-11-23T06:30:56.621Z,102.20
2022-11-23T06:33:28.120Z,105.70
2022-11-23T06:35:59.999Z,51.20
2022-11-23T06:38:33.930Z,120.00
2022-11-23T06:41:06.870Z,110.20
2022-11-23T06:43:37.812Z,87.50
2022-11-23T06:46:08.353Z,98.70
2022-11-23T06:48:44.922Z,87.00
2022-11-23T06:53:46.140Z,55.70
2022-11-23T06:56:17.111Z,63.30
2022-11-23T06:58:48.753Z,50.50
2022-11-23T07:01:21.731Z,59.50
2022-11-23T07:03:58.281Z,58.90
2022-11-23T07:06:35.471Z,41.20
2022-11-23T07:11:58.546Z,64.10
2022-11-23T07:14:30.881Z,65.90
2022-11-23T07:17:01.403Z,36.20
2022-11-23T07:19:31.530Z,77.70
2022-11-23T07:22:02.367Z,48.60
2022-11-23T07:24:39.538Z,66.40
2022-11-23T07:27:11.757Z,55.70
2022-11-23T07:29:41.670Z,65.00
2022-11-23T07:32:11.590Z,75.70
2022-11-23T07:34:42.629Z,56.10
2022-11-23T07:37:15.750Z,101.40
2022-11-23T07:39:57.370Z,77.40
2022-11-23T07:42:34.533Z,53.30
2022-11-23T07:45:09.442Z,71.30
2022-11-23T07:47:41.983Z,62.30
2022-11-23T07:50:13.779Z,54.50
2022-11-23T07:52:43.772Z,67.90
2022-11-23T07:55:15.663Z,108.80
2022-11-23T07:57:45.979Z,97.50
2022-11-23T08:00:17.825Z,92.20
2022-11-23T08:03:04.540Z,102.30
2022-11-23T08:05:38.088Z,60.00
2022-11-23T08:08:08.101Z,54.50
2022-11-23T08:10:43.619Z,61.90
2022-11-23T08:13:15.350Z,81.40
2022-11-23T08:15:50.153Z,89.60
2022-11-23T08:18:24.095Z,73.90
2022-11-23T08:20:54.482Z,91.20
2022-11-23T08:23:25.398Z,61.20
2022-11-23T08:25:55.440Z,58.40
2022-11-23T08:28:28.445Z,67.30
2022-11-23T08:30:58.431Z,63.00
2022-11-23T08:33:28.418Z,42.80
2022-11-23T08:35:58.268Z,47.70
2022-11-23T08:38:29.617Z,45.90
2022-11-23T08:41:03.809Z,38.10
2022-11-23T08:43:34.590Z,38.90
2022-11-23T08:46:11.105Z,39.10
2022-11-23T08:48:42.377Z,47.00
2022-11-23T08:51:12.821Z,76.90
2022-11-23T08:53:43.709Z,162.10
2022-11-23T08:56:13.699Z,317.60
2022-11-23T08:58:43.980Z,167.60
2022-11-23T09:01:15.820Z,382.50
2022-11-23T09:03:47.642Z,268.40
2022-11-23T09:06:17.988Z,284.60
2022-11-23T09:08:50.391Z,312.90
2022-11-23T09:11:20.190Z,180.60
2022-11-23T09:13:50.050Z,478.60
2022-11-23T09:16:20.490Z,313.70
2022-11-23T09:18:50.550Z,266.80
2022-11-23T09:21:20.967Z,143.10
2022-11-23T09:23:51.299Z,232.50
2022-11-23T09:26:21.271Z,230.00
2022-11-23T09:28:52.706Z,154.00
2022-11-23T09:31:25.691Z,144.40
2022-11-23T09:33:55.800Z,143.40
2022-11-23T09:36:26.417Z,173.30
2022-11-23T09:38:57.470Z,98.80
2022-11-23T09:41:53.119Z,116.60
2022-11-23T09:44:32.363Z,160.60
2022-11-23T09:47:13.952Z,191.40
2022-11-23T09:49:53.251Z,132.80
2022-11-23T09:52:25.284Z,88.30
2022-11-23T09:54:59.113Z,62.10
2022-11-23T09:57:34.948Z,84.90
2022-11-23T10:00:11.110Z,131.00
2022-11-23T10:02:42.767Z,196.50
2022-11-23T10:05:19.161Z,115.60
2022-11-23T10:08:06.865Z,88.00
2022-11-23T10:10:44.151Z,125.80
2022-11-23T10:13:34.718Z,146.40
2022-11-23T10:16:37.641Z,80.70
2022-11-23T10:19:19.811Z,56.50
2022-11-23T10:21:55.769Z,68.40
2022-11-23T10:24:32.203Z,41.20
2022-11-23T10:27:06.720Z,42.20
2022-11-23T10:29:39.829Z,41.80
2022-11-23T10:32:22.611Z,45.10
2022-11-23T10:35:03.675Z,45.50
2022-11-23T10:37:34.441Z,54.40
2022-11-23T10:40:04.624Z,53.30
2022-11-23T10:42:43.110Z,47.80
2022-11-23T10:45:22.961Z,42.90
2022-11-23T10:47:58.539Z,48.10
2022-11-23T10:50:33.160Z,46.90
2022-11-23T10:53:19.538Z,52.30
2022-11-23T10:55:53.388Z,44.20
2022-11-23T10:58:31.011Z,41.50
2022-11-23T11:01:03.593Z,44.90
2022-11-23T11:03:35.459Z,40.20
2022-11-23T11:06:09.103Z,38.70
2022-11-23T11:08:51.926Z,38.70
2022-11-23T11:11:28.558Z,36.40
2022-11-23T11:14:06.913Z,33.80
2022-11-23T11:16:38.003Z,32.10
2022-11-23T11:19:26.530Z,32.00
2022-11-23T11:21:57.340Z,33.30
2022-11-23T11:24:33.071Z,38.20
2022-11-23T11:27:07.273Z,35.90
2022-11-23T11:29:47.147Z,38.40
2022-11-23T11:32:25.091Z,44.80
2022-11-23T11:35:01.170Z,42.20
2022-11-23T11:37:35.930Z,45.30
2022-11-23T11:40:17.180Z,46.00
2022-11-23T11:42:54.693Z,47.60
2022-11-23T11:45:28.362Z,44.60
2022-11-23T11:50:34.451Z,37.00
2022-11-23T11:53:15.515Z,35.20
2022-11-23T11:55:55.611Z,35.20
2022-11-23T11:58:26.460Z,36.90
2022-11-23T12:01:04.862Z,45.50
2022-11-23T12:03:41.920Z,37.10
2022-11-23T12:06:21.304Z,32.70
2022-11-23T12:09:00.964Z,35.80
2022-11-23T12:11:32.419Z,42.70
2022-11-23T12:14:05.169Z,36.80
2022-11-23T12:16:47.721Z,36.80
2022-11-23T12:19:31.017Z,30.70
2022-11-23T12:22:17.010Z,32.80
2022-11-23T12:25:10.941Z,33.30
2022-11-23T12:27:57.051Z,28.80
2022-11-23T12:30:42.432Z,29.40
2022-11-23T12:33:44.490Z,28.50
2022-11-23T12:36:41.551Z,26.70
2022-11-23T12:39:28.681Z,23.40
2022-11-23T12:42:06.230Z,29.40
2022-11-23T12:45:03.750Z,26.90
2022-11-23T12:47:51.310Z,31.00
2022-11-23T12:50:31.159Z,34.60
2022-11-23T12:53:08.947Z,30.80
2022-11-23T12:55:48.857Z,30.80
2022-11-23T12:58:24.322Z,30.80
2022-11-23T13:00:58.772Z,30.40
2022-11-23T13:03:59.263Z,29.60
2022-11-23T13:07:12.429Z,32.10
2022-11-23T13:10:10.235Z,28.80
2022-11-23T13:13:08.785Z,31.90
2022-11-23T13:16:16.075Z,28.10
2022-11-23T13:19:00.170Z,30.30
2022-11-23T13:21:40.078Z,31.40
2022-11-23T13:24:28.353Z,33.10
2022-11-23T13:27:32.315Z,32.70
2022-11-23T13:30:10.643Z,33.80
2022-11-23T13:32:56.086Z,32.10
2022-11-23T13:35:55.048Z,31.20
2022-11-23T13:38:42.460Z,32.40
2022-11-23T13:41:52.831Z,30.40
2022-11-23T13:44:25.571Z,38.60
2022-11-23T13:47:01.870Z,33.70
2022-11-23T13:49:35.291Z,39.10
2022-11-23T13:52:28.151Z,31.70
2022-11-23T13:55:08.856Z,33.80
2022-11-23T13:57:41.355Z,31.90
2022-11-23T14:00:46.695Z,32.00
2022-11-23T14:03:51.574Z,28.80
2022-11-23T14:06:45.921Z,31.40
2022-11-23T14:09:23.767Z,31.10
2022-11-23T14:12:01.015Z,29.50
2022-11-23T14:14:48.039Z,31.50
2022-11-23T14:17:37.185Z,29.80
2022-11-23T14:20:35.454Z,32.00
2022-11-23T14:23:41.719Z,28.80
2022-11-23T14:26:26.562Z,31.20
2022-11-23T14:29:25.652Z,35.20
2022-11-23T14:32:11.333Z,35.20
2022-11-23T14:34:54.941Z,39.20
2022-11-23T14:37:33.795Z,33.80
2022-11-23T14:40:18.100Z,32.30
2022-11-23T14:42:56.291Z,37.40
2022-11-23T14:45:36.971Z,32.60
2022-11-23T14:48:30.281Z,36.50
2022-11-23T14:51:03.217Z,35.60
2022-11-23T14:53:36.010Z,39.50
2022-11-23T14:56:17.234Z,36.90
2022-11-23T14:58:47.763Z,37.30
2022-11-23T15:01:22.962Z,37.50
2022-11-23T15:04:02.390Z,37.20
2022-11-23T15:06:42.357Z,31.50
2022-11-23T15:09:37.983Z,33.10
2022-11-23T15:12:23.192Z,34.30
2022-11-23T15:14:56.952Z,32.20
2022-11-23T15:17:27.023Z,23.60
2022-11-23T15:19:59.050Z,34.70
2022-11-23T15:22:31.861Z,30.20
2022-11-23T15:25:12.191Z,32.70
2022-11-23T15:27:44.380Z,34.30
2022-11-23T15:30:20.811Z,36.00
2022-11-23T15:33:04.363Z,33.30
2022-11-23T15:35:36.672Z,35.70
2022-11-23T15:38:16.634Z,36.90
2022-11-23T15:40:52.160Z,38.00
2022-11-23T15:43:23.669Z,38.30
2022-11-23T15:46:05.329Z,36.90
2022-11-23T15:48:36.855Z,41.20
2022-11-23T15:51:08.937Z,39.20
2022-11-23T15:53:51.162Z,37.20
2022-11-23T15:56:25.831Z,37.10
2022-11-23T15:58:59.611Z,35.50
2022-11-23T16:01:31.037Z,35.60
2022-11-23T16:04:04.282Z,34.10
2022-11-23T16:06:39.760Z,32.90
2022-11-23T16:09:53.376Z,40.00
2022-11-23T16:12:29.160Z,38.00
2022-11-23T16:15:22.241Z,38.80
2022-11-23T16:17:53.731Z,37.70
2022-11-23T16:20:27.170Z,34.70
2022-11-23T16:22:59.740Z,39.30
2022-11-23T16:25:32.560Z,42.90
2022-11-23T16:28:04.459Z,41.90
2022-11-23T16:30:39.241Z,41.40
2022-11-23T16:33:16.386Z,38.90
2022-11-23T16:35:46.688Z,42.20
2022-11-23T16:38:22.430Z,38.80
2022-11-23T16:40:55.982Z,42.60
2022-11-23T16:46:22.432Z,37.70
2022-11-23T16:48:58.910Z,37.70
2022-11-23T16:51:29.683Z,40.90
2022-11-23T16:54:18.055Z,39.30
2022-11-23T16:57:03.175Z,36.10
2022-11-23T16:59:36.478Z,40.20
2022-11-23T17:02:12.880Z,41.00
2022-11-23T17:04:46.874Z,46.40
2022-11-23T17:07:17.082Z,50.10
2022-11-23T17:09:47.678Z,44.20
2022-11-23T17:12:19.071Z,46.50
2022-11-23T17:14:50.883Z,49.00
2022-11-23T17:17:22.707Z,41.80
2022-11-23T17:19:53.470Z,48.30
2022-11-23T17:22:25.250Z,44.40
2022-11-23T17:24:57.330Z,49.80
2022-11-23T17:27:30.022Z,50.10
2022-11-23T17:30:04.591Z,54.90
2022-11-23T17:32:35.729Z,50.70
2022-11-23T17:35:11.651Z,47.50
2022-11-23T17:37:42.680Z,55.20
2022-11-23T17:40:17.513Z,56.40
2022-11-23T17:42:47.712Z,53.20
2022-11-23T17:45:18.463Z,57.70
2022-11-23T17:47:49.210Z,54.00
2022-11-23T17:50:20.192Z,56.80
2022-11-23T17:52:53.903Z,52.80
2022-11-23T17:55:31.201Z,65.10
2022-11-23T17:58:01.920Z,53.70
2022-11-23T18:00:33.510Z,54.10
2022-11-23T18:03:04.307Z,54.30
2022-11-23T18:05:38.422Z,54.20
2022-11-23T18:08:10.024Z,57.20
2022-11-23T18:10:43.099Z,58.80
2022-11-23T18:13:16.238Z,57.10
2022-11-23T18:15:46.422Z,54.90
2022-11-23T18:18:16.782Z,61.30
2022-11-23T18:20:46.683Z,64.40
2022-11-23T18:23:16.830Z,58.90
2022-11-23T18:25:47.590Z,62.90
2022-11-23T18:28:18.494Z,60.80
2022-11-23T18:30:49.167Z,61.90
2022-11-23T18:33:19.864Z,74.40
2022-11-23T18:35:52.295Z,69.60
2022-11-23T18:38:23.270Z,73.00
2022-11-23T18:40:56.069Z,87.40
2022-11-23T18:43:26.499Z,57.70
2022-11-23T18:45:56.571Z,65.50
2022-11-23T18:48:28.189Z,99.20
2022-11-23T18:50:58.241Z,86.00
2022-11-23T18:53:28.100Z,90.70
2022-11-23T18:56:05.283Z,96.80
2022-11-23T18:58:36.283Z,88.20
2022-11-23T19:01:12.645Z,116.00
2022-11-23T19:03:44.825Z,92.30
2022-11-23T19:06:18.660Z,91.90
2022-11-23T19:08:59.472Z,78.50
2022-11-23T19:11:30.092Z,96.60
2022-11-23T19:14:01.980Z,86.00
2022-11-23T19:16:33.066Z,103.30
2022-11-23T19:19:09.249Z,90.10
2022-11-23T19:21:42.530Z,113.20
2022-11-23T19:24:13.833Z,85.50
2022-11-23T19:26:49.500Z,97.00
2022-11-23T19:29:23.773Z,104.20
2022-11-23T19:31:57.423Z,75.10
2022-11-23T19:34:31.321Z,123.30
2022-11-23T19:37:02.776Z,92.00
2022-11-23T19:39:34.339Z,69.30
2022-11-23T19:42:04.651Z,75.50
2022-11-23T19:44:37.100Z,58.40
2022-11-23T19:47:13.855Z,65.70
2022-11-23T19:49:46.391Z,49.90
2022-11-23T19:52:17.820Z,70.70
2022-11-23T19:54:47.671Z,57.20
2022-11-23T19:57:17.980Z,61.00
2022-11-23T19:59:47.981Z,51.90
2022-11-23T20:02:25.026Z,71.40
2022-11-23T20:04:55.171Z,63.20
2022-11-23T20:23:50.369Z,67.50
2022-11-23T20:26:22.342Z,71.50
2022-11-23T20:28:53.610Z,60.80
2022-11-23T20:31:25.295Z,82.00
2022-11-23T20:33:56.070Z,64.90
2022-11-23T20:36:27.745Z,77.20
2022-11-23T20:38:58.729Z,89.30
2022-11-23T20:41:30.310Z,107.30
2022-11-23T20:44:10.685Z,73.50
2022-11-23T20:49:31.379Z,89.40
2022-11-23T20:52:03.172Z,67.40
2022-11-23T20:54:33.814Z,65.80
2022-11-23T20:57:04.600Z,55.90
2022-11-23T20:59:34.891Z,61.70
2022-11-23T21:02:06.124Z,52.30
2022-11-23T21:04:36.365Z,44.00
2022-11-23T21:07:12.397Z,41.90
2022-11-23T21:09:44.442Z,43.50
2022-11-23T21:12:32.363Z,42.80
2022-11-23T21:15:03.129Z,40.90
2022-11-23T21:17:33.638Z,44.80
2022-11-23T21:20:04.311Z,48.60
2022-11-23T21:22:34.552Z,45.70
2022-11-23T21:25:07.709Z,46.10
2022-11-23T21:27:38.161Z,42.70
2022-11-23T21:30:10.269Z,44.90
2022-11-23T21:32:41.151Z,45.00
2022-11-23T21:35:12.571Z,46.60
2022-11-23T21:37:43.140Z,41.80
2022-11-23T21:40:16.310Z,44.90
2022-11-23T21:42:46.180Z,42.20
2022-11-23T21:45:17.181Z,42.60
2022-11-23T21:47:50.341Z,40.70
2022-11-23T21:50:20.560Z,45.60
2022-11-23T21:52:50.887Z,43.10
2022-11-23T21:55:21.030Z,38.80
2022-11-23T21:57:51.420Z,44.80
2022-11-23T22:00:28.414Z,47.50
2022-11-23T22:03:01.441Z,48.30
2022-11-23T22:05:31.523Z,50.50
2022-11-23T22:08:28.108Z,49.30
2022-11-23T22:10:53.922Z,54.30
2022-11-23T22:13:28.202Z,57.10
2022-11-23T22:16:00.591Z,58.10
2022-11-23T22:18:31.231Z,57.90
2022-11-23T22:21:06.220Z,52.20
2022-11-23T22:23:36.190Z,65.60
2022-11-23T22:26:08.500Z,48.70
2022-11-23T22:28:40.477Z,72.20
2022-11-23T22:31:12.214Z,46.80
2022-11-23T22:33:43.055Z,44.60
2022-11-23T22:36:14.880Z,46.90
2022-11-23T22:38:45.250Z,51.90
2022-11-23T22:41:17.461Z,48.50
2022-11-23T22:43:47.920Z,54.20
2022-11-23T22:46:19.778Z,51.00
2022-11-23T22:48:51.902Z,67.90
2022-11-23T22:51:23.394Z,54.70
2022-11-23T22:53:56.278Z,57.10
2022-11-23T22:56:27.267Z,75.10
2022-11-23T22:58:58.199Z,69.70
2022-11-23T23:01:30.035Z,77.80
2022-11-23T23:04:02.478Z,96.70
2022-11-23T23:06:34.310Z,106.90
2022-11-23T23:09:09.002Z,98.50
2022-11-23T23:11:39.550Z,82.60
2022-11-23T23:14:10.391Z,67.20
2022-11-23T23:16:40.724Z,65.30
2022-11-23T23:19:13.902Z,62.30
2022-11-23T23:21:44.064Z,60.20
2022-11-23T23:24:14.511Z,73.70
2022-11-23T23:26:44.550Z,83.10
2022-11-23T23:29:14.990Z,76.60
2022-11-23T23:31:44.951Z,55.00
2022-11-23T23:34:18.139Z,83.80
2022-11-23T23:36:48.019Z,96.70
2022-11-23T23:39:18.328Z,63.80
2022-11-23T23:41:48.276Z,51.50
2022-11-23T23:44:19.498Z,46.60
2022-11-23T23:46:49.270Z,43.80
2022-11-23T23:49:19.450Z,48.00
2022-11-23T23:51:51.755Z,69.80
2022-11-23T23:54:21.861Z,70.90
2022-11-23T23:56:52.451Z,81.40
2022-11-23T23:59:23.300Z,60.30
